createdAt,value
2023-05-16T00:01:02.659Z,100.00
2023-05-16T00:03:50.287Z,100.00
2023-05-16T00:06:38.943Z,100.00
2023-05-16T00:09:29.175Z,100.00
2023-05-16T00:12:18.099Z,100.00
2023-05-16T00:15:08.975Z,100.00
2023-05-16T00:18:00.038Z,100.00
2023-05-16T00:20:53.241Z,100.00
2023-05-16T00:23:41.194Z,100.00
2023-05-16T00:26:29.216Z,100.00
2023-05-16T00:29:17.820Z,100.00
2023-05-16T00:32:08.938Z,100.00
2023-05-16T00:34:57.024Z,100.00
2023-05-16T00:37:45.039Z,100.00
2023-05-16T00:40:33.115Z,100.00
2023-05-16T00:43:20.851Z,100.00
2023-05-16T00:46:11.957Z,100.00
2023-05-16T00:49:00.353Z,100.00
2023-05-16T00:51:49.631Z,100.00
2023-05-16T00:54:39.159Z,100.00
2023-05-16T00:57:27.828Z,100.00
2023-05-16T01:00:17.883Z,100.00
2023-05-16T01:03:06.612Z,100.00
2023-05-16T01:05:54.766Z,100.00
2023-05-16T01:08:43.158Z,100.00
2023-05-16T01:12:07.692Z,100.00
2023-05-16T01:15:20.216Z,100.00
2023-05-16T01:18:43.482Z,100.00
2023-05-16T01:21:53.207Z,100.00
2023-05-16T01:25:20.449Z,100.00
2023-05-16T01:28:10.395Z,100.00
2023-05-16T01:30:58.648Z,100.00
2023-05-16T01:33:47.958Z,100.00
2023-05-16T01:37:12.033Z,100.00
2023-05-16T01:40:09.894Z,100.00
2023-05-16T01:43:02.093Z,100.00
2023-05-16T01:46:25.957Z,100.00
2023-05-16T01:49:27.140Z,100.00
2023-05-16T01:52:39.263Z,100.00
2023-05-16T01:55:41.964Z,100.00
2023-05-16T01:58:34.661Z,100.00
2023-05-16T02:01:23.288Z,100.00
2023-05-16T02:04:11.750Z,100.00
2023-05-16T02:07:01.243Z,100.00
2023-05-16T02:09:49.705Z,100.00
2023-05-16T02:12:37.752Z,100.00
2023-05-16T02:15:26.477Z,100.00
2023-05-16T02:18:14.860Z,100.00
2023-05-16T02:21:04.597Z,100.00
2023-05-16T02:23:52.421Z,100.00
2023-05-16T02:26:40.503Z,100.00
2023-05-16T02:29:28.332Z,100.00
2023-05-16T02:32:16.392Z,100.00
2023-05-16T02:35:05.257Z,100.00
2023-05-16T02:37:52.997Z,100.00
2023-05-16T02:40:41.335Z,100.00
2023-05-16T02:43:29.129Z,100.00
2023-05-16T02:46:49.013Z,100.00
2023-05-16T02:49:37.862Z,100.00
2023-05-16T02:52:26.356Z,100.00
2023-05-16T02:58:05.446Z,100.00
2023-05-16T03:00:53.472Z,100.00
2023-05-16T03:03:43.103Z,100.00
2023-05-16T03:06:31.629Z,100.00
2023-05-16T03:09:21.917Z,100.00
2023-05-16T03:12:10.297Z,100.00
2023-05-16T03:14:58.926Z,100.00
2023-05-16T03:17:47.311Z,100.00
2023-05-16T03:20:36.220Z,100.00
2023-05-16T03:23:25.108Z,100.00
2023-05-16T03:26:18.121Z,100.00
2023-05-16T03:29:06.626Z,100.00
2023-05-16T03:31:55.362Z,100.00
2023-05-16T03:34:43.730Z,100.00
2023-05-16T03:37:32.035Z,100.00
2023-05-16T03:40:20.076Z,100.00
2023-05-16T03:43:09.737Z,100.00
2023-05-16T03:45:57.891Z,100.00
2023-05-16T03:48:46.589Z,100.00
2023-05-16T03:51:34.547Z,100.00
2023-05-16T03:54:23.137Z,100.00
2023-05-16T03:57:11.151Z,100.00
2023-05-16T03:59:59.806Z,100.00
2023-05-16T04:02:48.257Z,100.00
2023-05-16T04:05:36.641Z,100.00
2023-05-16T04:08:25.926Z,100.00
2023-05-16T04:11:16.208Z,100.00
2023-05-16T04:14:04.715Z,100.00
2023-05-16T04:16:53.400Z,100.00
2023-05-16T04:19:41.272Z,100.00
2023-05-16T04:22:30.412Z,100.00
2023-05-16T04:25:24.711Z,100.00
2023-05-16T04:28:13.659Z,100.00
2023-05-16T04:31:02.185Z,100.00
2023-05-16T04:33:50.467Z,100.00
2023-05-16T04:36:39.473Z,100.00
2023-05-16T04:39:28.221Z,100.00
2023-05-16T04:42:17.765Z,100.00
2023-05-16T04:45:06.922Z,100.00
2023-05-16T04:47:55.598Z,100.00
2023-05-16T04:50:48.287Z,100.00
2023-05-16T04:53:36.133Z,100.00
2023-05-16T04:56:23.982Z,100.00
2023-05-16T04:59:13.912Z,100.00
2023-05-16T05:02:04.431Z,100.00
2023-05-16T05:04:52.815Z,100.00
2023-05-16T05:07:41.069Z,100.00
2023-05-16T05:10:28.783Z,100.00
2023-05-16T05:13:17.289Z,100.00
2023-05-16T05:16:07.025Z,100.00
2023-05-16T05:18:56.428Z,100.00
2023-05-16T05:21:45.520Z,100.00
2023-05-16T05:24:33.310Z,100.00
2023-05-16T05:27:21.588Z,100.00
2023-05-16T05:30:09.954Z,100.00
2023-05-16T05:32:57.693Z,100.00
2023-05-16T05:35:46.146Z,100.00
2023-05-16T05:38:34.210Z,100.00
2023-05-16T05:41:22.768Z,100.00
2023-05-16T05:44:10.997Z,100.00
2023-05-16T05:46:59.638Z,100.00
2023-05-16T05:49:49.312Z,100.00
2023-05-16T05:52:39.440Z,100.00
2023-05-16T05:55:28.145Z,100.00
2023-05-16T05:58:16.395Z,100.00
2023-05-16T06:01:04.743Z,100.00
2023-05-16T06:03:52.971Z,100.00
2023-05-16T06:06:41.812Z,99.91
2023-05-16T06:09:31.068Z,99.45
2023-05-16T06:12:19.380Z,99.49
2023-05-16T06:15:08.779Z,99.59
2023-05-16T06:17:56.710Z,99.19
2023-05-16T06:20:46.312Z,97.94
2023-05-16T06:23:37.564Z,97.98
2023-05-16T06:26:26.001Z,97.54
2023-05-16T06:29:14.964Z,97.38
2023-05-16T06:32:07.695Z,97.59
2023-05-16T06:34:56.160Z,98.30
2023-05-16T06:37:44.414Z,97.79
2023-05-16T06:40:32.550Z,98.25
2023-05-16T06:43:20.912Z,98.24
2023-05-16T06:46:09.360Z,98.53
2023-05-16T06:48:57.814Z,99.36
2023-05-16T06:51:46.489Z,99.48
2023-05-16T06:54:35.330Z,99.70
2023-05-16T06:57:24.224Z,99.45
2023-05-16T07:00:13.224Z,99.72
2023-05-16T07:03:02.135Z,99.42
2023-05-16T07:05:53.241Z,99.73
2023-05-16T07:08:41.878Z,99.67
2023-05-16T07:11:32.526Z,99.76
2023-05-16T07:14:20.413Z,99.41
2023-05-16T07:17:11.975Z,97.94
2023-05-16T07:20:01.728Z,98.62
2023-05-16T07:22:50.990Z,98.95
2023-05-16T07:25:39.283Z,99.21
2023-05-16T07:28:27.185Z,99.58
2023-05-16T07:31:17.172Z,99.53
2023-05-16T07:34:05.380Z,99.96
2023-05-16T07:36:54.185Z,99.99
2023-05-16T07:39:43.540Z,100.00
2023-05-16T07:42:32.166Z,99.74
2023-05-16T07:45:19.968Z,99.38
2023-05-16T07:48:08.283Z,98.88
2023-05-16T07:50:56.782Z,98.72
2023-05-16T07:53:45.917Z,99.28
2023-05-16T07:56:34.276Z,99.57
2023-05-16T07:59:22.426Z,99.92
2023-05-16T08:02:11.714Z,100.00
2023-05-16T08:05:00.596Z,100.00
2023-05-16T08:07:48.998Z,100.00
2023-05-16T08:10:37.129Z,100.00
2023-05-16T08:13:25.550Z,100.00
2023-05-16T08:16:14.360Z,100.00
2023-05-16T08:19:02.683Z,100.00
2023-05-16T08:21:52.251Z,100.00
2023-05-16T08:24:40.393Z,100.00
2023-05-16T08:27:29.090Z,100.00
2023-05-16T08:30:17.901Z,100.00
2023-05-16T08:33:06.978Z,100.00
2023-05-16T08:35:55.310Z,100.00
2023-05-16T08:38:46.267Z,100.00
2023-05-16T08:41:34.611Z,100.00
2023-05-16T08:44:22.735Z,100.00
2023-05-16T08:47:25.041Z,100.00
2023-05-16T08:50:16.910Z,100.00
2023-05-16T08:53:08.570Z,100.00
2023-05-16T08:55:58.117Z,100.00
2023-05-16T08:58:47.069Z,100.00
2023-05-16T09:01:36.198Z,100.00
2023-05-16T09:04:26.297Z,100.00
2023-05-16T09:07:14.562Z,100.00
2023-05-16T09:10:03.744Z,100.00
2023-05-16T09:12:52.033Z,100.00
2023-05-16T09:15:40.205Z,99.37
2023-05-16T09:18:28.956Z,98.70
2023-05-16T09:21:17.360Z,96.27
2023-05-16T09:24:09.133Z,94.40
2023-05-16T09:26:57.154Z,92.17
2023-05-16T09:29:51.156Z,92.23
2023-05-16T09:32:44.149Z,93.07
2023-05-16T09:38:27.343Z,93.72
2023-05-16T09:41:15.454Z,93.94
2023-05-16T09:44:07.732Z,93.75
2023-05-16T09:46:56.399Z,93.17
2023-05-16T09:49:50.187Z,92.97
2023-05-16T09:52:39.862Z,92.55
2023-05-16T09:55:28.860Z,91.88
2023-05-16T09:58:19.000Z,91.14
2023-05-16T10:01:08.428Z,90.62
2023-05-16T10:03:56.472Z,91.19
2023-05-16T10:06:46.344Z,91.76
2023-05-16T10:09:34.796Z,91.61
2023-05-16T10:12:30.126Z,91.50
2023-05-16T10:15:21.030Z,91.70
2023-05-16T10:18:13.530Z,92.18
2023-05-16T10:21:23.765Z,92.22
2023-05-16T10:24:18.112Z,91.52
2023-05-16T10:27:06.550Z,90.68
2023-05-16T10:29:57.306Z,88.71
2023-05-16T10:32:48.513Z,85.13
2023-05-16T10:35:38.846Z,83.37
2023-05-16T10:38:29.416Z,80.45
2023-05-16T10:41:19.354Z,75.78
2023-05-16T10:44:16.901Z,70.63
2023-05-16T10:47:06.827Z,70.77
2023-05-16T10:49:55.980Z,70.11
2023-05-16T10:52:44.630Z,68.31
2023-05-16T10:55:33.157Z,67.33
2023-05-16T10:58:42.930Z,67.65
2023-05-16T11:01:34.134Z,65.57
2023-05-16T11:04:22.270Z,63.42
2023-05-16T11:07:12.093Z,60.82
2023-05-16T11:10:16.639Z,57.36
2023-05-16T11:13:11.643Z,54.44
2023-05-16T11:16:29.384Z,54.05
2023-05-16T11:19:42.695Z,56.06
2023-05-16T11:22:33.710Z,58.90
2023-05-16T11:25:41.467Z,61.49
2023-05-16T11:28:30.255Z,63.40
2023-05-16T11:31:18.942Z,65.45
2023-05-16T11:34:06.806Z,66.99
2023-05-16T11:36:56.477Z,68.90
2023-05-16T11:39:45.847Z,69.87
2023-05-16T11:42:46.687Z,70.59
2023-05-16T11:45:35.912Z,70.85
2023-05-16T11:48:35.774Z,70.88
2023-05-16T11:51:25.247Z,71.18
2023-05-16T11:54:13.918Z,71.61
2023-05-16T11:57:02.350Z,71.73
2023-05-16T11:59:52.093Z,71.03
2023-05-16T12:02:41.018Z,71.00
2023-05-16T12:05:31.874Z,71.03
2023-05-16T12:08:22.735Z,71.48
2023-05-16T12:11:11.830Z,71.88
2023-05-16T12:14:02.557Z,71.95
2023-05-16T12:16:52.818Z,72.56
2023-05-16T12:19:41.884Z,72.15
2023-05-16T12:22:29.873Z,73.06
2023-05-16T12:25:36.524Z,73.63
2023-05-16T12:28:24.661Z,74.36
2023-05-16T12:31:31.087Z,74.18
2023-05-16T12:34:21.749Z,74.67
2023-05-16T12:37:10.144Z,75.16
2023-05-16T12:40:04.351Z,75.76
2023-05-16T12:42:54.047Z,75.64
2023-05-16T12:45:43.622Z,75.81
2023-05-16T12:48:35.899Z,76.29
2023-05-16T12:51:24.910Z,77.18
2023-05-16T12:54:15.132Z,78.12
2023-05-16T12:57:10.273Z,78.25
2023-05-16T12:59:58.329Z,78.68
2023-05-16T13:02:48.849Z,79.49
2023-05-16T13:05:37.005Z,79.88
2023-05-16T13:08:25.810Z,80.37
2023-05-16T13:11:14.677Z,81.24
2023-05-16T13:14:03.107Z,81.80
2023-05-16T13:16:51.652Z,81.92
2023-05-16T13:19:39.808Z,82.37
2023-05-16T13:22:27.732Z,82.66
2023-05-16T13:25:16.403Z,83.03
2023-05-16T13:28:05.016Z,83.18
2023-05-16T13:30:54.732Z,83.31
2023-05-16T13:33:42.873Z,83.60
2023-05-16T13:36:41.543Z,84.20
2023-05-16T13:39:30.422Z,84.50
2023-05-16T13:42:18.778Z,84.43
2023-05-16T13:45:09.142Z,84.35
2023-05-16T13:47:57.423Z,83.80
2023-05-16T13:50:47.323Z,83.56
2023-05-16T13:53:36.313Z,83.47
2023-05-16T13:56:24.436Z,83.27
2023-05-16T13:59:16.838Z,82.98
2023-05-16T14:02:14.001Z,82.56
2023-05-16T14:05:02.420Z,82.40
2023-05-16T14:07:50.723Z,81.76
2023-05-16T14:10:39.269Z,81.73
2023-05-16T14:13:27.777Z,81.36
2023-05-16T14:16:21.567Z,81.15
2023-05-16T14:19:09.976Z,81.06
2023-05-16T14:21:58.336Z,81.61
2023-05-16T14:24:46.808Z,82.02
2023-05-16T14:27:38.582Z,82.22
2023-05-16T14:30:27.740Z,82.63
2023-05-16T14:33:16.771Z,83.35
2023-05-16T14:36:08.413Z,84.05
2023-05-16T14:38:57.104Z,84.56
2023-05-16T14:41:45.952Z,84.79
2023-05-16T14:44:34.351Z,85.04
2023-05-16T14:47:22.665Z,85.16
2023-05-16T14:50:11.280Z,84.85
2023-05-16T14:52:59.976Z,84.87
2023-05-16T14:55:50.472Z,84.10
2023-05-16T14:58:38.682Z,84.55
2023-05-16T15:01:28.404Z,84.41
2023-05-16T15:04:18.936Z,84.46
2023-05-16T15:07:07.690Z,84.75
2023-05-16T15:09:56.772Z,84.29
2023-05-16T15:12:44.969Z,84.18
2023-05-16T15:15:34.080Z,83.51
2023-05-16T15:18:22.109Z,82.72
2023-05-16T15:21:10.604Z,82.00
2023-05-16T15:23:59.216Z,81.75
2023-05-16T15:26:47.797Z,81.25
2023-05-16T15:29:35.788Z,81.52
2023-05-16T15:32:26.296Z,82.07
2023-05-16T15:35:14.394Z,82.28
2023-05-16T15:38:02.713Z,82.98
2023-05-16T15:41:09.711Z,83.41
2023-05-16T15:44:01.903Z,83.96
2023-05-16T15:46:51.403Z,84.37
2023-05-16T15:49:39.989Z,84.72
2023-05-16T15:52:29.585Z,84.93
2023-05-16T15:55:18.098Z,85.39
2023-05-16T15:58:06.826Z,85.93
2023-05-16T16:00:56.863Z,86.44
2023-05-16T16:03:45.222Z,86.56
2023-05-16T16:06:33.812Z,86.88
2023-05-16T16:09:24.576Z,87.33
2023-05-16T16:12:15.094Z,86.54
2023-05-16T16:15:06.797Z,86.60
2023-05-16T16:17:54.930Z,86.75
2023-05-16T16:20:43.481Z,86.78
2023-05-16T16:23:32.174Z,87.51
2023-05-16T16:26:20.298Z,87.77
2023-05-16T16:29:10.315Z,87.69
2023-05-16T16:31:59.998Z,87.66
2023-05-16T16:34:49.561Z,87.59
2023-05-16T16:37:37.645Z,87.56
2023-05-16T16:40:26.467Z,86.49
2023-05-16T16:43:18.310Z,85.87
2023-05-16T16:46:08.483Z,85.45
2023-05-16T16:48:59.702Z,85.61
2023-05-16T16:51:48.386Z,85.00
2023-05-16T16:54:36.646Z,85.53
2023-05-16T16:57:25.041Z,84.86
2023-05-16T17:00:14.384Z,84.45
2023-05-16T17:03:05.011Z,84.23
2023-05-16T17:05:53.475Z,83.72
2023-05-16T17:08:42.129Z,83.39
2023-05-16T17:11:31.829Z,82.76
2023-05-16T17:14:21.745Z,82.26
2023-05-16T17:17:10.156Z,81.68
2023-05-16T17:19:59.954Z,81.26
2023-05-16T17:22:48.995Z,81.27
2023-05-16T17:25:37.128Z,80.78
2023-05-16T17:28:26.267Z,80.75
2023-05-16T17:31:14.487Z,80.71
2023-05-16T17:34:02.713Z,80.66
2023-05-16T17:36:51.118Z,80.55
2023-05-16T17:39:39.872Z,80.37
2023-05-16T17:42:28.249Z,80.23
2023-05-16T17:45:16.730Z,80.20
2023-05-16T17:48:05.843Z,79.60
2023-05-16T17:50:54.033Z,79.10
2023-05-16T17:53:42.155Z,79.15
2023-05-16T17:56:31.180Z,78.51
2023-05-16T17:59:22.876Z,77.59
2023-05-16T18:02:16.377Z,77.37
2023-05-16T18:05:07.115Z,77.25
2023-05-16T18:07:55.229Z,77.10
2023-05-16T18:10:51.582Z,77.04
2023-05-16T18:13:41.393Z,76.32
2023-05-16T18:16:34.422Z,76.17
2023-05-16T18:19:26.273Z,76.83
2023-05-16T18:22:15.523Z,76.80
2023-05-16T18:25:10.042Z,76.58
2023-05-16T18:27:58.485Z,76.46
2023-05-16T18:30:47.390Z,76.61
2023-05-16T18:33:40.667Z,76.88
2023-05-16T18:36:29.008Z,76.82
2023-05-16T18:39:19.063Z,76.88
2023-05-16T18:42:08.961Z,77.63
2023-05-16T18:44:59.793Z,77.80
2023-05-16T18:47:49.297Z,77.50
2023-05-16T18:50:37.780Z,78.17
2023-05-16T18:53:27.232Z,78.32
2023-05-16T18:56:18.826Z,78.47
2023-05-16T18:59:07.513Z,78.65
2023-05-16T19:01:56.453Z,78.28
2023-05-16T19:04:45.173Z,78.83
2023-05-16T19:07:37.171Z,78.57
2023-05-16T19:10:25.848Z,78.87
2023-05-16T19:13:14.041Z,78.91
2023-05-16T19:16:02.369Z,79.15
2023-05-16T19:18:50.908Z,79.26
2023-05-16T19:21:40.919Z,79.19
2023-05-16T19:24:29.300Z,79.21
2023-05-16T19:27:17.738Z,79.00
2023-05-16T19:30:07.687Z,79.06
2023-05-16T19:32:59.103Z,78.92
2023-05-16T19:35:48.322Z,79.10
2023-05-16T19:38:37.527Z,79.33
2023-05-16T19:41:36.764Z,79.35
2023-05-16T19:44:26.814Z,79.21
2023-05-16T19:47:17.075Z,79.37
2023-05-16T19:50:07.082Z,79.47
2023-05-16T19:52:55.724Z,79.42
2023-05-16T19:55:44.505Z,79.62
2023-05-16T19:58:33.244Z,79.59
2023-05-16T20:01:28.180Z,79.78
2023-05-16T20:04:16.690Z,79.60
2023-05-16T20:07:05.620Z,79.67
2023-05-16T20:09:56.701Z,79.81
2023-05-16T20:12:46.874Z,79.62
2023-05-16T20:15:36.866Z,79.76
2023-05-16T20:18:26.450Z,79.56
2023-05-16T20:21:16.803Z,79.84
2023-05-16T20:24:06.287Z,79.65
2023-05-16T20:27:05.033Z,80.04
2023-05-16T20:29:54.437Z,80.07
2023-05-16T20:32:43.143Z,79.99
2023-05-16T20:35:31.231Z,80.17
2023-05-16T20:38:19.986Z,80.49
2023-05-16T20:41:07.932Z,80.86
2023-05-16T20:43:56.832Z,81.00
2023-05-16T20:46:45.062Z,81.16
2023-05-16T20:49:37.356Z,81.31
2023-05-16T20:52:28.028Z,81.90
2023-05-16T20:55:17.477Z,82.28
2023-05-16T20:58:06.402Z,83.03
2023-05-16T21:00:54.931Z,82.86
2023-05-16T21:03:44.641Z,83.18
2023-05-16T21:06:33.863Z,83.29
2023-05-16T21:09:21.920Z,83.65
2023-05-16T21:12:11.724Z,83.97
2023-05-16T21:15:00.293Z,84.20
2023-05-16T21:17:48.736Z,84.38
2023-05-16T21:20:37.289Z,85.02
2023-05-16T21:23:25.497Z,85.32
2023-05-16T21:26:15.270Z,85.38
2023-05-16T21:29:03.529Z,85.51
2023-05-16T21:31:52.538Z,86.09
2023-05-16T21:34:42.621Z,86.44
2023-05-16T21:37:30.809Z,86.53
2023-05-16T21:40:24.940Z,87.14
2023-05-16T21:43:13.497Z,87.09
2023-05-16T21:46:01.291Z,87.50
2023-05-16T21:48:49.670Z,87.52
2023-05-16T21:51:39.472Z,87.73
2023-05-16T21:54:27.700Z,88.03
2023-05-16T21:57:15.678Z,88.27
2023-05-16T22:00:06.945Z,88.32
2023-05-16T22:02:56.351Z,88.53
2023-05-16T22:05:48.797Z,89.30
2023-05-16T22:08:37.718Z,89.17
2023-05-16T22:11:26.531Z,89.30
2023-05-16T22:14:14.938Z,89.55
2023-05-16T22:17:03.797Z,89.83
2023-05-16T22:19:51.775Z,89.97
2023-05-16T22:22:41.720Z,91.03
2023-05-16T22:25:30.589Z,90.84
2023-05-16T22:28:18.602Z,91.20
2023-05-16T22:31:07.349Z,91.61
2023-05-16T22:33:55.662Z,91.93
2023-05-16T22:36:44.802Z,92.25
2023-05-16T22:39:33.347Z,92.35
2023-05-16T22:42:21.534Z,93.13
2023-05-16T22:45:10.388Z,93.22
2023-05-16T22:47:58.767Z,93.16
2023-05-16T22:50:47.595Z,93.52
2023-05-16T22:53:35.643Z,93.55
2023-05-16T22:56:23.775Z,93.82
2023-05-16T22:59:12.664Z,94.09
2023-05-16T23:02:01.678Z,95.28
2023-05-16T23:04:49.900Z,95.46
2023-05-16T23:07:39.310Z,95.78
2023-05-16T23:10:28.998Z,95.77
2023-05-16T23:13:18.036Z,96.17
2023-05-16T23:16:06.793Z,96.38
2023-05-16T23:18:55.524Z,96.34
2023-05-16T23:21:44.638Z,96.75
2023-05-16T23:24:32.678Z,97.02
2023-05-16T23:27:21.073Z,97.14
2023-05-16T23:30:11.473Z,97.09
2023-05-16T23:33:01.133Z,97.17
2023-05-16T23:35:50.335Z,97.27
2023-05-16T23:38:39.345Z,97.31
2023-05-16T23:41:27.164Z,97.45
2023-05-16T23:44:15.425Z,97.48
2023-05-16T23:47:05.270Z,97.82
2023-05-16T23:49:54.347Z,97.75
2023-05-16T23:52:43.044Z,97.48
2023-05-16T23:55:31.054Z,97.83
2023-05-16T23:58:19.056Z,97.59
